Nearby METAR Reports

 

KSJC - San Jose, California, USA
Distance from station: NE 9mi, 14km
Updated: 02/23/2024 7:53am
Clear
Clear
 Wind from calm
Wind: Calm
Temperature: 46°F , 8°C
Dew Point: 43°F , 6°C
Humidity: 87%
Barometer: 30.17 inHg , 1021.7 hPa
Clouds: Clear
Visibility: 10 miles , 16 km
2024/02/23 12:53 KSJC 231253Z AUTO 00000KT 10SM CLR 08/06 A3017 RMK AO2 SLP214 T00830056
KNUQ - Moffett Nas/Mtn, California, USA
Distance from station: N 9mi, 14km
Updated: 02/23/2024 8:35am
Clear
Clear
 Wind from calm
Wind: Calm
Temperature: 45°F , 7°C
Dew Point: 43°F , 6°C
Humidity: 93%
Barometer: 30.17 inHg , 1021.7 hPa
Clouds: Clear
Visibility: 10 miles , 16 km
2024/02/23 13:35 KNUQ 231335Z AUTO 00000KT 10SM CLR 07/06 A3017 RMK AO2
 
KPAO - Palo Alto, California, USA
Distance from station: NNW 14mi, 23km
Updated: 02/22/2024 11:47pm
NOT Current
Few Clouds
Few Clouds
 Wind from calm
Wind: Calm
Temperature: 52°F , 11°C
Dew Point: 46°F , 8°C
Humidity: 82%
Barometer: 30.23 inHg , 1023.7 hPa
Clouds: Few Clouds
Visibility: 10 miles , 16 km
Cloud details: Few Clouds 2500 ft
2024/02/23 04:47 KPAO 230447Z 00000KT 10SM FEW025 11/08 A3023 RMK LAST
KRHV - San Jose/Reid, California, USA
Distance from station: ENE 12mi, 19km
Updated: 02/23/2024 12:55am
NOT Current
Clear
Clear
 Wind from calm
Wind: Calm
Temperature: 52°F , 11°C
Dew Point: 46°F , 8°C
Humidity: 82%
Barometer: 30.25 inHg , 1024.4 hPa
Clouds: Clear
Visibility: 10 miles , 16 km
2024/02/23 05:55 KRHV 230555Z 00000KT 10SM SKC 11/08 A3025 RMK LAST
 
KOAK - Oakland, California, USA
Distance from station: NNW 31mi, 50km
Updated: 02/23/2024 7:53am
Few Clouds
Few Clouds
 Wind from E
Wind: E 3 mph , 6 km/h
Temperature: 46°F , 8°C
Dew Point: 43°F , 6°C
Humidity: 87%
Barometer: 30.19 inHg , 1022.4 hPa
Clouds: Few Clouds
Visibility: 10 miles , 16 km
Cloud details: Few Clouds 15000 ft
2024/02/23 12:53 KOAK 231253Z 10003KT 10SM FEW150 08/06 A3019 RMK AO2 SLP221 T00780061
KSQL - San Carlos Airpo, California, USA
Distance from station: NW 21mi, 34km
Updated: 02/23/2024 8:35am
Clear
Clear
 Wind from calm
Wind: Calm
Temperature: 45°F , 7°C
Dew Point: 45°F , 7°C
Humidity: 100%
Barometer: 30.18 inHg , 1022 hPa
Clouds: Clear
Visibility: 10 miles , 16 km
2024/02/23 13:35 KSQL 231335Z AUTO 00000KT 10SM CLR 07/07 A3018 RMK AO2
 
KSFO - San Francisco, California, USA
Distance from station: NW 30mi, 49km
Updated: 02/23/2024 7:56am
Partly cloudy
Partly cloudy
 Wind from S
Wind: S 3 mph , 6 km/h
Temperature: 46°F , 8°C
Dew Point: 45°F , 7°C
Humidity: 93%
Barometer: 30.17 inHg , 1021.7 hPa
Clouds: Partly cloudy
Visibility: 10 miles , 16 km
Cloud details: Partly cloudy 20000 ft
2024/02/23 12:56 KSFO 231256Z 19003KT 10SM SCT200 08/07 A3017 RMK AO2 SLP216 T00830067
KE16 - San Martin, California, USA
Distance from station: ESE 27mi, 43km
Updated: 02/23/2024 8:35am
Clear
Clear
 Wind from calm
Wind: Calm
Temperature: 43°F , 6°C
Dew Point: 43°F , 6°C
Humidity: 100%
Barometer: 30.19 inHg , 1022.4 hPa
Clouds: Clear
Visibility: 10 miles , 16 km
2024/02/23 13:35 KE16 231335Z AUTO 00000KT 10SM CLR 06/06 A3019 RMK AO2 PWINO PNO
 
KWVI - Watsonville, California, USA
Distance from station: SSE 27mi, 44km
Updated: 02/23/2024 7:53am
Clear
Clear
 Wind from varies
Wind: varies 3 mph , 6 km/h
Temperature: 45°F , 7°C
Dew Point: 45°F , 7°C
Humidity: 100%
Barometer: 30.15 inHg , 1021 hPa
Clouds: Clear
Visibility: 10 miles , 16 km
2024/02/23 12:53 KWVI 231253Z AUTO VRB03KT 10SM CLR 07/07 A3015 RMK AO2 SLP209 T00720067
KHAF - Half Moon Bay, California, USA
Distance from station: WNW 31mi, 50km
Updated: 02/23/2024 8:35am
Clear
Clear
 Wind from E
Wind: E 13 mph , 20 km/h
Temperature: 54°F , 12°C
Dew Point: 48°F , 9°C
Humidity: 82%
Barometer: 30.14 inHg , 1020.7 hPa
Clouds: Clear
Visibility: 9 miles , 14 km
2024/02/23 13:35 KHAF 231335Z AUTO 08011KT 9SM CLR 12/09 A3014 RMK AO2
 
KHWD - Hayward, California, USA
Distance from station: N 28mi, 44km
Updated: 02/23/2024 7:54am
Clear
Clear
 Wind from NNE
Wind: NNE 6 mph , 9 km/h
Temperature: 52°F , 11°C
Dew Point: 45°F , 7°C
Humidity: 77%
Barometer: 30.17 inHg , 1021.7 hPa
Clouds: Clear
Visibility: 10 miles , 16 km
2024/02/23 12:54 KHWD 231254Z 03005KT 10SM CLR 11/07 A3017 RMK AO2 SLP225 T01060067
KLVK - Livermore, California, USA
Distance from station: NNE 31mi, 51km
Updated: 02/23/2024 7:53am
Clear
Clear
 Wind from calm
Wind: Calm
Temperature: 43°F , 6°C
Dew Point: 39°F , 4°C
Humidity: 87%
Barometer: 30.18 inHg , 1022 hPa
Clouds: Clear
Visibility: 10 miles , 16 km
2024/02/23 12:53 KLVK 231253Z AUTO 00000KT 10SM CLR 06/04 A3018 RMK AO2 SLP219 T00560039